Terminal Aerodrome Forecast
Issued by NWS Knoxville/Tri Cities, TN

Home | Current Version | Previous Version | Text Only | Print | Product List | Glossary On
Versions: 1 2 3 4 5 6 7 8 9 10 11 12 13 14 15 16 17 18 19 20 21 22 23 24 25 26 27 28 29 30
000
FTUS44 KMRX 241211 AAA
TAFTYS
TAF AMD
KTYS 241211Z 2412/2512 22005KT P6SM SCT025 BKN035
      TEMPO 2412/2414 BKN009
     FM241400 25008KT P6SM BKN025
     FM241800 30008KT P6SM BKN035
     FM250000 36006KT P6SM SCT050
     FM250600 02005KT P6SM BKN250=

USA.gov is the U.S. government's official web portal to all federal, state and local government web resources and services.